Little Niangua River (Missouri), Macks Creek (06925250)

StateMissouriCurrentPotential (126 cfs)
RiverLittle Niangua RiverFlood - The river is flooding. Obstacles can be treacherous or deadly. The river should be avoided at this stage for casual trips and definitely for the inexperienced. Trips should be attempted only with protective gear and equipment.Flood(none)
Updated2019-10-14 2:30 (21 minutes ago)High - The river is high and potentially dangerous, especially for the young and / or inexperienced. Normal stream obstacles are sometimes difficult to navigate. Extended distances can be attempted, but canoe travel may not be advisable.High(none)
Discharge126 cfs (median: 4 cfs)Good - Conditions are ideal for a canoe or kayak. Boats typically will drag on fewer than one-quarter of riffles, if at all, and portages are unnecessary or rare. Normal float lengths can be attempted without a problem.Good(none)
Height5.14 feetLow - River is low but can still be floated. Some riffles are okay but most come with significant dragging and might need a portage. Float lengths should be reduced to accommodate low flow, dragging, and portages.Low(none)
TrendFalling (falling over 24 hours)Poor - River is too low to float comfortably. Most or all riffles will drag or must be portaged and some obstacles (such as slick shelf rock) cause undue problems. Avoid the river at this stage for casual paddling trips.Poor(none)
USGSExternal icon USGS Site for Macks Creek (06925250)LocationExternal icon Google Maps

Trending Data

Plot Image
ObservationHeightDischargeMaximum
Discharge
Minimum
Discharge
Mean
Discharge
P05P10P20P25P50
(Median)
P75P80P90P95
2019-10-14 02:30 5.14 126 1090 (2010) 1 (2008) 121 1 2 2 4 11 126 912
2019-10-14 01:30 5.15 127 1090 (2010) 1 (2008) 121 1 2 2 4 11 126 912
2019-10-14 00:30 5.16 128 1090 (2010) 1 (2008) 121 1 2 2 4 11 126 912
2019-10-13 23:30 5.17 130 151 (2010) 1 (2013) 30 1 1 1 4 12 90 149
2019-10-13 22:30 5.18 131 151 (2010) 1 (2013) 30 1 1 1 4 12 90 149
2019-10-13 21:30 5.19 132 151 (2010) 1 (2013) 30 1 1 1 4 12 90 149
2019-10-13 20:30 5.20 134 151 (2010) 1 (2013) 30 1 1 1 4 12 90 149
2019-10-13 19:30 5.21 135 151 (2010) 1 (2013) 30 1 1 1 4 12 90 149
2019-10-13 18:30 5.22 137 151 (2010) 1 (2013) 30 1 1 1 4 12 90 149
2019-10-13 17:30 5.23 138 151 (2010) 1 (2013) 30 1 1 1 4 12 90 149
2019-10-13 16:30 5.24 139 151 (2010) 1 (2013) 30 1 1 1 4 12 90 149
2019-10-13 15:30 5.25 141 151 (2010) 1 (2013) 30 1 1 1 4 12 90 149
2019-10-13 14:30 5.26 142 151 (2010) 1 (2013) 30 1 1 1 4 12 90 149
2019-10-13 13:30 5.28 145 151 (2010) 1 (2013) 30 1 1 1 4 12 90 149
2019-10-13 12:30 5.29 147 151 (2010) 1 (2013) 30 1 1 1 4 12 90 149
2019-10-13 11:30 5.30 148 151 (2010) 1 (2013) 30 1 1 1 4 12 90 149
2019-10-13 10:30 5.32 151 151 (2010) 1 (2013) 30 1 1 1 4 12 90 149
2019-10-13 09:30 5.33 153 151 (2010) 1 (2013) 30 1 1 1 4 12 90 149
2019-10-13 08:30 5.34 154 151 (2010) 1 (2013) 30 1 1 1 4 12 90 149
2019-10-13 07:30 5.35 156 151 (2010) 1 (2013) 30 1 1 1 4 12 90 149
2019-10-13 06:30 5.37 159 151 (2010) 1 (2013) 30 1 1 1 4 12 90 149
2019-10-13 05:30 5.38 160 151 (2010) 1 (2013) 30 1 1 1 4 12 90 149
2019-10-13 04:30 5.40 164 151 (2010) 1 (2013) 30 1 1 1 4 12 90 149
2019-10-13 03:30 5.42 167 151 (2010) 1 (2013) 30 1 1 1 4 12 90 149
2019-10-13 02:30 5.43 168 151 (2010) 1 (2013) 30 1 1 1 4 12 90 149
2019-10-13 01:30 5.45 172 151 (2010) 1 (2013) 30 1 1 1 4 12 90 149
2019-10-13 00:30 5.47 175 151 (2010) 1 (2013) 30 1 1 1 4 12 90 149
2019-10-12 23:30 5.49 178 192 (2010) 1 (2013) 25 1 1 1 4 12 27 161
2019-10-12 22:30 5.51 181 192 (2010) 1 (2013) 25 1 1 1 4 12 27 161
2019-10-12 21:30 5.53 185 192 (2010) 1 (2013) 25 1 1 1 4 12 27 161
2019-10-12 20:30 5.55 188 192 (2010) 1 (2013) 25 1 1 1 4 12 27 161
2019-10-12 19:30 5.57 192 192 (2010) 1 (2013) 25 1 1 1 4 12 27 161
2019-10-12 18:30 5.60 197 192 (2010) 1 (2013) 25 1 1 1 4 12 27 161
2019-10-12 17:30 5.62 201 192 (2010) 1 (2013) 25 1 1 1 4 12 27 161
2019-10-12 16:30 5.65 206 192 (2010) 1 (2013) 25 1 1 1 4 12 27 161
2019-10-12 15:30 5.68 211 192 (2010) 1 (2013) 25 1 1 1 4 12 27 161
2019-10-12 14:30 5.70 215 192 (2010) 1 (2013) 25 1 1 1 4 12 27 161
2019-10-12 13:30 5.73 221 192 (2010) 1 (2013) 25 1 1 1 4 12 27 161
2019-10-12 12:30 5.76 227 192 (2010) 1 (2013) 25 1 1 1 4 12 27 161
2019-10-12 11:30 5.79 232 192 (2010) 1 (2013) 25 1 1 1 4 12 27 161
2019-10-12 10:30 5.83 240 192 (2010) 1 (2013) 25 1 1 1 4 12 27 161
2019-10-12 09:30 5.86 246 192 (2010) 1 (2013) 25 1 1 1 4 12 27 161
2019-10-12 08:30 5.90 254 192 (2010) 1 (2013) 25 1 1 1 4 12 27 161
2019-10-12 07:30 5.94 263 192 (2010) 1 (2013) 25 1 1 1 4 12 27 161
2019-10-12 06:30 5.98 271 192 (2010) 1 (2013) 25 1 1 1 4 12 27 161
2019-10-12 05:30 6.03 282 192 (2010) 1 (2013) 25 1 1 1 4 12 27 161
2019-10-12 04:30 6.08 293 192 (2010) 1 (2013) 25 1 1 1 4 12 27 161
2019-10-12 03:30 6.13 305 192 (2010) 1 (2013) 25 1 1 1 4 12 27 161
2019-10-12 02:30 6.19 319 192 (2010) 1 (2013) 25 1 1 1 4 12 27 161
2019-10-12 01:30 6.25 333 192 (2010) 1 (2013) 25 1 1 1 4 12 27 161
2019-10-12 00:30 6.32 351 192 (2010) 1 (2013) 25 1 1 1 4 12 27 161
2019-10-11 23:30 6.40 371 305 (2010) 1 (2013) 37 1 1 2 5 12 38 255
2019-10-11 22:30 6.49 395 305 (2010) 1 (2013) 37 1 1 2 5 12 38 255
2019-10-11 21:30 6.58 420 305 (2010) 1 (2013) 37 1 1 2 5 12 38 255
2019-10-11 20:30 6.68 448 305 (2010) 1 (2013) 37 1 1 2 5 12 38 255
2019-10-11 19:30 6.79 481 305 (2010) 1 (2013) 37 1 1 2 5 12 38 255
2019-10-11 18:30 6.91 519 305 (2010) 1 (2013) 37 1 1 2 5 12 38 255
2019-10-11 17:30 7.06 568 305 (2010) 1 (2013) 37 1 1 2 5 12 38 255
2019-10-11 16:30 7.22 624 305 (2010) 1 (2013) 37 1 1 2 5 12 38 255
2019-10-11 15:30 7.42 698 305 (2010) 1 (2013) 37 1 1 2 5 12 38 255
2019-10-11 14:30 7.66 793 305 (2010) 1 (2013) 37 1 1 2 5 12 38 255
2019-10-11 13:30 7.98 932 305 (2010) 1 (2013) 37 1 1 2 5 12 38 255
2019-10-11 12:30 8.41 1140 305 (2010) 1 (2013) 37 1 1 2 5 12 38 255
2019-10-11 11:30 8.98 1460 305 (2010) 1 (2013) 37 1 1 2 5 12 38 255
2019-10-11 10:30 9.52 1810 305 (2010) 1 (2013) 37 1 1 2 5 12 38 255
2019-10-11 09:30 9.76 1980 305 (2010) 1 (2013) 37 1 1 2 5 12 38 255
2019-10-11 08:30 9.41 1730 305 (2010) 1 (2013) 37 1 1 2 5 12 38 255
2019-10-11 07:30 8.53 1200 305 (2010) 1 (2013) 37 1 1 2 5 12 38 255
2019-10-11 06:30 7.95 919 305 (2010) 1 (2013) 37 1 1 2 5 12 38 255
2019-10-11 05:30 7.86 879 305 (2010) 1 (2013) 37 1 1 2 5 12 38 255
2019-10-11 04:30 8.24 1060 305 (2010) 1 (2013) 37 1 1 2 5 12 38 255
2019-10-11 03:30 8.87 1390 305 (2010) 1 (2013) 37 1 1 2 5 12 38 255
2019-10-11 02:30 9.86 2050 305 (2010) 1 (2013) 37 1 1 2 5 12 38 255
2019-10-11 01:30 10.91 2860 305 (2010) 1 (2013) 37 1 1 2 5 12 38 255
2019-10-11 00:30 11.41 3340 305 (2010) 1 (2013) 37 1 1 2 5 12 38 255
2019-10-10 23:30 11.03 2960 704 (2010) 1 (2013) 71 1 1 1 5 13 26 570
2019-10-10 22:30 10.41 2460 704 (2010) 1 (2013) 71 1 1 1 5 13 26 570
2019-10-10 21:30 9.91 2090 704 (2010) 1 (2013) 71 1 1 1 5 13 26 570
2019-10-10 20:30 10.18 2290 704 (2010) 1 (2013) 71 1 1 1 5 13 26 570
2019-10-10 19:30 11.31 3240 704 (2010) 1 (2013) 71 1 1 1 5 13 26 570
2019-10-10 18:30 11.57 3510 704 (2010) 1 (2013) 71 1 1 1 5 13 26 570
2019-10-10 17:30 10.51 2540 704 (2010) 1 (2013) 71 1 1 1 5 13 26 570
2019-10-10 16:30 8.15 1010 704 (2010) 1 (2013) 71 1 1 1 5 13 26 570
2019-10-10 15:30 6.52 403 704 (2010) 1 (2013) 71 1 1 1 5 13 26 570
2019-10-10 14:30 6.18 316 704 (2010) 1 (2013) 71 1 1 1 5 13 26 570
2019-10-10 13:30 6.29 343 704 (2010) 1 (2013) 71 1 1 1 5 13 26 570
2019-10-10 12:30 6.36 361 704 (2010) 1 (2013) 71 1 1 1 5 13 26 570
2019-10-10 11:30 6.26 336 704 (2010) 1 (2013) 71 1 1 1 5 13 26 570
2019-10-10 10:30 6.05 287 704 (2010) 1 (2013) 71 1 1 1 5 13 26 570
2019-10-10 09:30 5.50 180 704 (2010) 1 (2013) 71 1 1 1 5 13 26 570
2019-10-10 08:30 5.62 201 704 (2010) 1 (2013) 71 1 1 1 5 13 26 570
2019-10-10 07:30 4.90 96 704 (2010) 1 (2013) 71 1 1 1 5 13 26 570
2019-10-10 06:30 4.61 65 704 (2010) 1 (2013) 71 1 1 1 5 13 26 570
2019-10-10 05:30 4.52 56 704 (2010) 1 (2013) 71 1 1 1 5 13 26 570
2019-10-10 04:30 4.44 49 704 (2010) 1 (2013) 71 1 1 1 5 13 26 570
2019-10-10 03:30 4.44 49 704 (2010) 1 (2013) 71 1 1 1 5 13 26 570
2019-10-10 02:30 4.44 49 704 (2010) 1 (2013) 71 1 1 1 5 13 26 570
2019-10-10 01:30 4.44 49 704 (2010) 1 (2013) 71 1 1 1 5 13 26 570
2019-10-10 00:30 4.44 49 704 (2010) 1 (2013) 71 1 1 1 5 13 26 570
2019-10-09 23:30 4.45 49 6630 (2010) 1 (2013) 608 1 1 1 5 10 13 5310
2019-10-09 22:30 4.45 49 6630 (2010) 1 (2013) 608 1 1 1 5 10 13 5310
2019-10-09 21:30 4.45 49 6630 (2010) 1 (2013) 608 1 1 1 5 10 13 5310
2019-10-09 20:30 4.45 49 6630 (2010) 1 (2013) 608 1 1 1 5 10 13 5310
2019-10-09 19:30 4.45 49 6630 (2010) 1 (2013) 608 1 1 1 5 10 13 5310
2019-10-09 18:30 4.45 49 6630 (2010) 1 (2013) 608 1 1 1 5 10 13 5310
2019-10-09 17:30 4.45 49 6630 (2010) 1 (2013) 608 1 1 1 5 10 13 5310
2019-10-09 16:30 4.45 49 6630 (2010) 1 (2013) 608 1 1 1 5 10 13 5310
2019-10-09 15:30 4.45 49 6630 (2010) 1 (2013) 608 1 1 1 5 10 13 5310
2019-10-09 14:30 4.45 49 6630 (2010) 1 (2013) 608 1 1 1 5 10 13 5310
2019-10-09 13:30 4.45 49 6630 (2010) 1 (2013) 608 1 1 1 5 10 13 5310
2019-10-09 12:30 4.45 49 6630 (2010) 1 (2013) 608 1 1 1 5 10 13 5310
2019-10-09 11:30 4.45 49 6630 (2010) 1 (2013) 608 1 1 1 5 10 13 5310
2019-10-09 10:30 4.45 49 6630 (2010) 1 (2013) 608 1 1 1 5 10 13 5310
2019-10-09 09:30 4.45 49 6630 (2010) 1 (2013) 608 1 1 1 5 10 13 5310
2019-10-09 08:30 4.45 49 6630 (2010) 1 (2013) 608 1 1 1 5 10 13 5310
2019-10-09 07:30 4.45 49 6630 (2010) 1 (2013) 608 1 1 1 5 10 13 5310
2019-10-09 06:30 4.45 49 6630 (2010) 1 (2013) 608 1 1 1 5 10 13 5310
2019-10-09 05:30 4.45 49 6630 (2010) 1 (2013) 608 1 1 1 5 10 13 5310
2019-10-09 04:30 4.45 49 6630 (2010) 1 (2013) 608 1 1 1 5 10 13 5310
2019-10-09 03:30 4.45 49 6630 (2010) 1 (2013) 608 1 1 1 5 10 13 5310
2019-10-09 02:30 4.45 49 6630 (2010) 1 (2013) 608 1 1 1 5 10 13 5310
2019-10-09 01:30 4.46 50 6630 (2010) 1 (2013) 608 1 1 1 5 10 13 5310
2019-10-09 00:30 4.46 50 6630 (2010) 1 (2013) 608 1 1 1 5 10 13 5310
2019-10-08 23:30 4.46 50 4230 (2010) 1 (2013) 390 1 1 1 7 10 14 3390
2019-10-08 22:30 4.46 50 4230 (2010) 1 (2013) 390 1 1 1 7 10 14 3390
2019-10-08 21:30 4.46 50 4230 (2010) 1 (2013) 390 1 1 1 7 10 14 3390
2019-10-08 20:30 4.46 50 4230 (2010) 1 (2013) 390 1 1 1 7 10 14 3390
2019-10-08 19:30 4.46 50 4230 (2010) 1 (2013) 390 1 1 1 7 10 14 3390
2019-10-08 18:30 4.46 50 4230 (2010) 1 (2013) 390 1 1 1 7 10 14 3390
2019-10-08 17:30 4.46 50 4230 (2010) 1 (2013) 390 1 1 1 7 10 14 3390
2019-10-08 16:30 4.47 51 4230 (2010) 1 (2013) 390 1 1 1 7 10 14 3390
2019-10-08 15:30 4.47 51 4230 (2010) 1 (2013) 390 1 1 1 7 10 14 3390
2019-10-08 14:30 4.47 51 4230 (2010) 1 (2013) 390 1 1 1 7 10 14 3390
2019-10-08 13:30 4.47 51 4230 (2010) 1 (2013) 390 1 1 1 7 10 14 3390
2019-10-08 12:30 4.47 51 4230 (2010) 1 (2013) 390 1 1 1 7 10 14 3390
2019-10-08 11:30 4.47 51 4230 (2010) 1 (2013) 390 1 1 1 7 10 14 3390
2019-10-08 10:30 4.47 51 4230 (2010) 1 (2013) 390 1 1 1 7 10 14 3390
2019-10-08 09:30 4.47 51 4230 (2010) 1 (2013) 390 1 1 1 7 10 14 3390
2019-10-08 08:30 4.47 51 4230 (2010) 1 (2013) 390 1 1 1 7 10 14 3390
2019-10-08 07:30 4.47 51 4230 (2010) 1 (2013) 390 1 1 1 7 10 14 3390
2019-10-08 06:30 4.47 51 4230 (2010) 1 (2013) 390 1 1 1 7 10 14 3390
2019-10-08 05:30 4.47 51 4230 (2010) 1 (2013) 390 1 1 1 7 10 14 3390
2019-10-08 04:30 4.47 51 4230 (2010) 1 (2013) 390 1 1 1 7 10 14 3390
2019-10-08 03:30 4.48 52 4230 (2010) 1 (2013) 390 1 1 1 7 10 14 3390
2019-10-08 02:30 4.48 52 4230 (2010) 1 (2013) 390 1 1 1 7 10 14 3390
2019-10-08 01:30 4.48 52 4230 (2010) 1 (2013) 390 1 1 1 7 10 14 3390
2019-10-08 00:30 4.48 52 4230 (2010) 1 (2013) 390 1 1 1 7 10 14 3390
2019-10-07 23:30 4.48 52 21 (2010) 1 (2013) 8 1 1 1 9 10 15 21
2019-10-07 22:30 4.48 52 21 (2010) 1 (2013) 8 1 1 1 9 10 15 21
2019-10-07 21:30 4.48 52 21 (2010) 1 (2013) 8 1 1 1 9 10 15 21
2019-10-07 20:30 4.49 53 21 (2010) 1 (2013) 8 1 1 1 9 10 15 21
2019-10-07 19:30 4.49 53 21 (2010) 1 (2013) 8 1 1 1 9 10 15 21
2019-10-07 18:30 4.49 53 21 (2010) 1 (2013) 8 1 1 1 9 10 15 21
2019-10-07 17:30 4.49 53 21 (2010) 1 (2013) 8 1 1 1 9 10 15 21
2019-10-07 16:30 4.49 53 21 (2010) 1 (2013) 8 1 1 1 9 10 15 21
2019-10-07 15:30 4.49 53 21 (2010) 1 (2013) 8 1 1 1 9 10 15 21
2019-10-07 14:30 4.49 53 21 (2010) 1 (2013) 8 1 1 1 9 10 15 21
2019-10-07 13:30 4.50 54 21 (2010) 1 (2013) 8 1 1 1 9 10 15 21
2019-10-07 12:30 4.50 54 21 (2010) 1 (2013) 8 1 1 1 9 10 15 21
2019-10-07 11:30 4.50 54 21 (2010) 1 (2013) 8 1 1 1 9 10 15 21
2019-10-07 10:30 4.50 54 21 (2010) 1 (2013) 8 1 1 1 9 10 15 21
2019-10-07 09:30 4.50 54 21 (2010) 1 (2013) 8 1 1 1 9 10 15 21
2019-10-07 08:30 4.50 54 21 (2010) 1 (2013) 8 1 1 1 9 10 15 21
2019-10-07 07:30 4.50 54 21 (2010) 1 (2013) 8 1 1 1 9 10 15 21
2019-10-07 06:30 4.50 54 21 (2010) 1 (2013) 8 1 1 1 9 10 15 21
2019-10-07 05:30 4.50 54 21 (2010) 1 (2013) 8 1 1 1 9 10 15 21
2019-10-07 04:30 4.50 54 21 (2010) 1 (2013) 8 1 1 1 9 10 15 21
2019-10-07 03:30 4.50 54 21 (2010) 1 (2013) 8 1 1 1 9 10 15 21
2019-10-07 02:30 4.51 55 21 (2010) 1 (2013) 8 1 1 1 9 10 15 21
2019-10-07 01:30 4.51 55 21 (2010) 1 (2013) 8 1 1 1 9 10 15 21
2019-10-07 00:30 4.65 69 21 (2010) 1 (2013) 8 1 1 1 9 10 15 21

A total of 171 rows are displayed for years 2008 through 2018.

Trips for Little Niangua River (Missouri), Macks Creek (06925250)

DateStartEndDistanceConditionDischargeHeightFishingDetails

A total of 0 rows are displayed.

Condition Descriptions

Fishing Conditions

Fish Species

Notes

Classic Trip List

The classic River Trips application is still available for use. It is updated with the new system using a data retrofit. It is no longer maintained. The original River Trips application is no longer updated (as of 1 Dec 2016) but can be checked for errors or for the condition of the data before it was converted to the new system.